createdAt,value
2023-03-20T00:02:42.150Z,46.62
2023-03-20T00:05:44.995Z,46.58
2023-03-20T00:08:49.565Z,46.68
2023-03-20T00:11:55.553Z,46.58
2023-03-20T00:15:13.609Z,46.43
2023-03-20T00:18:19.891Z,46.57
2023-03-20T00:21:23.157Z,46.45
2023-03-20T00:24:26.726Z,46.41
2023-03-20T00:27:29.662Z,46.53
2023-03-20T00:30:34.001Z,46.49
2023-03-20T00:33:38.241Z,46.56
2023-03-20T00:36:41.297Z,46.50
2023-03-20T00:39:44.264Z,46.67
2023-03-20T00:42:50.670Z,46.56
2023-03-20T00:45:54.997Z,46.58
2023-03-20T00:48:57.975Z,46.62
2023-03-20T00:52:02.195Z,46.63
2023-03-20T00:55:05.606Z,46.60
2023-03-20T00:58:11.749Z,46.60
2023-03-20T01:01:17.972Z,46.67
2023-03-20T01:04:21.844Z,46.51
2023-03-20T01:07:25.007Z,46.48
2023-03-20T01:10:31.957Z,46.43
2023-03-20T01:13:34.965Z,46.44
2023-03-20T01:16:39.244Z,46.25
2023-03-20T01:19:42.620Z,46.39
2023-03-20T01:22:45.589Z,46.49
2023-03-20T01:25:48.773Z,46.44
2023-03-20T01:28:52.352Z,46.43
2023-03-20T01:31:57.335Z,46.47
2023-03-20T01:35:02.743Z,46.38
2023-03-20T01:38:13.953Z,46.37
2023-03-20T01:41:18.587Z,46.42
2023-03-20T01:44:29.779Z,46.43
2023-03-20T01:47:36.010Z,46.32
2023-03-20T01:50:39.722Z,46.37
2023-03-20T01:53:52.379Z,46.38
2023-03-20T01:57:00.341Z,46.37
2023-03-20T02:00:06.658Z,46.42
2023-03-20T02:03:21.502Z,46.41
2023-03-20T02:06:45.018Z,46.39
2023-03-20T02:10:10.153Z,46.42
2023-03-20T02:13:33.005Z,46.41
2023-03-20T02:16:36.207Z,46.40
2023-03-20T02:20:05.328Z,46.36
2023-03-20T02:23:46.136Z,46.20
2023-03-20T02:27:03.717Z,46.29
2023-03-20T02:30:40.335Z,46.31
2023-03-20T02:34:23.556Z,46.22
2023-03-20T02:37:54.672Z,46.27
2023-03-20T02:41:05.085Z,46.24
2023-03-20T02:44:13.882Z,46.25
2023-03-20T02:47:25.189Z,46.30
2023-03-20T02:50:36.060Z,46.32
2023-03-20T02:53:49.969Z,46.35
2023-03-20T02:57:01.993Z,46.26
2023-03-20T03:00:13.464Z,46.25
2023-03-20T03:03:20.537Z,46.18
2023-03-20T03:06:27.747Z,46.43
2023-03-20T03:09:36.633Z,46.20
2023-03-20T03:12:43.790Z,46.30
2023-03-20T03:15:50.805Z,46.23
2023-03-20T03:19:06.570Z,46.21
2023-03-20T03:22:10.135Z,46.22
2023-03-20T03:25:14.829Z,46.16
2023-03-20T03:28:27.474Z,46.26
2023-03-20T03:31:32.731Z,46.29
2023-03-20T03:34:38.045Z,46.22
2023-03-20T03:37:49.174Z,46.10
2023-03-20T03:41:00.496Z,46.23
2023-03-20T03:44:13.065Z,46.17
2023-03-20T03:47:21.140Z,46.06
2023-03-20T03:50:29.468Z,46.14
2023-03-20T03:53:40.214Z,46.02
2023-03-20T03:56:47.427Z,46.01
2023-03-20T03:59:53.764Z,46.04
2023-03-20T04:02:59.210Z,46.04
2023-03-20T04:06:05.886Z,46.04
2023-03-20T04:09:08.829Z,46.03
2023-03-20T04:12:32.896Z,45.93
2023-03-20T04:15:36.406Z,46.06
2023-03-20T04:18:41.025Z,45.99
2023-03-20T04:21:45.625Z,45.88
2023-03-20T04:24:48.500Z,45.91
2023-03-20T04:27:53.017Z,45.90
2023-03-20T04:31:25.274Z,45.91
2023-03-20T04:34:46.862Z,45.71
2023-03-20T04:38:03.897Z,45.83
2023-03-20T04:41:09.498Z,45.88
2023-03-20T04:44:13.936Z,45.89
2023-03-20T04:47:19.574Z,45.78
2023-03-20T04:50:22.491Z,45.63
2023-03-20T04:53:27.646Z,45.86
2023-03-20T04:56:31.461Z,45.78
2023-03-20T04:59:49.325Z,45.79
2023-03-20T05:02:53.146Z,45.74
2023-03-20T05:05:56.131Z,45.87
2023-03-20T05:09:00.799Z,45.79
2023-03-20T05:12:06.541Z,45.76
2023-03-20T05:15:19.494Z,45.85
2023-03-20T05:18:40.824Z,45.73
2023-03-20T05:22:02.710Z,45.80
2023-03-20T05:25:35.021Z,45.79
2023-03-20T05:28:48.539Z,45.79
2023-03-20T05:32:09.127Z,45.72
2023-03-20T05:35:35.793Z,45.73
2023-03-20T05:38:48.976Z,45.72
2023-03-20T05:42:12.102Z,45.80
2023-03-20T05:45:33.737Z,45.85
2023-03-20T05:48:48.860Z,45.71
2023-03-20T05:52:08.486Z,45.71
2023-03-20T05:55:23.480Z,45.74
2023-03-20T05:58:58.270Z,45.70
2023-03-20T06:02:10.492Z,45.65
2023-03-20T06:05:18.397Z,45.72
2023-03-20T06:08:26.776Z,45.69
2023-03-20T06:11:31.694Z,45.72
2023-03-20T06:14:34.892Z,45.61
2023-03-20T06:17:42.344Z,45.62
2023-03-20T06:20:53.009Z,45.67
2023-03-20T06:23:55.925Z,45.57
2023-03-20T06:27:00.153Z,45.69
2023-03-20T06:30:04.014Z,45.64
2023-03-20T06:33:11.309Z,45.59
2023-03-20T06:36:30.108Z,45.60
2023-03-20T06:39:39.338Z,45.64
2023-03-20T06:42:46.626Z,45.59
2023-03-20T06:45:51.020Z,45.48
2023-03-20T06:48:58.828Z,45.63
2023-03-20T06:52:03.577Z,45.56
2023-03-20T06:55:08.958Z,45.65
2023-03-20T06:58:11.847Z,45.72
2023-03-20T07:01:19.877Z,45.72
2023-03-20T07:04:22.897Z,45.74
2023-03-20T07:07:30.949Z,45.58
2023-03-20T07:10:34.309Z,45.66
2023-03-20T07:13:38.019Z,45.57
2023-03-20T07:16:51.590Z,45.58
2023-03-20T07:19:54.584Z,45.70
2023-03-20T07:22:58.849Z,45.65
2023-03-20T07:26:05.436Z,45.66
2023-03-20T07:29:08.923Z,45.63
2023-03-20T07:32:12.770Z,45.67
2023-03-20T07:35:24.352Z,45.50
2023-03-20T07:38:28.862Z,45.50
2023-03-20T07:41:42.077Z,45.25
2023-03-20T07:44:46.527Z,45.29
2023-03-20T07:47:49.552Z,45.26
2023-03-20T07:50:52.474Z,45.41
2023-03-20T07:53:56.734Z,45.63
2023-03-20T07:56:59.806Z,45.93
2023-03-20T08:00:04.299Z,45.94
2023-03-20T08:03:14.643Z,46.09
2023-03-20T08:06:17.560Z,46.06
2023-03-20T08:09:21.969Z,46.01
2023-03-20T08:12:24.800Z,45.84
2023-03-20T08:15:27.795Z,45.68
2023-03-20T08:18:30.761Z,45.76
2023-03-20T08:21:34.546Z,45.69
2023-03-20T08:24:38.872Z,45.84
2023-03-20T08:27:41.737Z,45.92
2023-03-20T08:30:45.366Z,45.81
2023-03-20T08:33:48.634Z,45.89
2023-03-20T08:36:52.495Z,46.03
2023-03-20T08:39:56.934Z,46.01
2023-03-20T08:43:00.340Z,46.14
2023-03-20T08:46:03.621Z,46.16
2023-03-20T08:49:06.632Z,46.23
2023-03-20T08:52:09.658Z,46.21
2023-03-20T08:55:16.412Z,46.30
2023-03-20T08:58:19.991Z,46.36
2023-03-20T09:01:23.157Z,46.33
2023-03-20T09:04:26.704Z,46.29
2023-03-20T09:07:29.696Z,46.36
2023-03-20T09:10:34.625Z,46.28
2023-03-20T09:13:37.541Z,46.40
2023-03-20T09:16:40.587Z,46.25
2023-03-20T09:19:44.695Z,46.35
2023-03-20T09:22:47.842Z,46.41
2023-03-20T09:25:52.159Z,46.42
2023-03-20T09:28:55.070Z,46.29
2023-03-20T09:31:58.017Z,46.44
2023-03-20T09:35:00.970Z,46.45
2023-03-20T09:38:03.890Z,46.37
2023-03-20T09:41:13.515Z,46.40
2023-03-20T09:44:28.251Z,46.47
2023-03-20T09:47:39.780Z,46.40
2023-03-20T09:50:50.343Z,46.49
2023-03-20T09:54:01.235Z,46.37
2023-03-20T09:57:07.315Z,46.61
2023-03-20T10:00:16.530Z,46.74
2023-03-20T10:03:23.753Z,46.57
2023-03-20T10:06:26.974Z,46.64
2023-03-20T10:09:31.674Z,46.64
2023-03-20T10:12:57.420Z,46.54
2023-03-20T10:16:06.745Z,46.58
2023-03-20T10:19:23.975Z,46.61
2023-03-20T10:22:29.910Z,46.61
2023-03-20T10:25:35.424Z,46.70
2023-03-20T10:28:47.381Z,46.61
2023-03-20T10:31:58.493Z,46.62
2023-03-20T10:35:14.481Z,46.66
2023-03-20T10:38:34.050Z,46.58
2023-03-20T10:41:40.807Z,46.60
2023-03-20T10:44:51.778Z,46.55
2023-03-20T10:47:56.973Z,46.60
2023-03-20T10:51:03.228Z,46.61
2023-03-20T10:54:11.675Z,46.52
2023-03-20T10:57:19.444Z,46.66
2023-03-20T11:00:27.044Z,46.59
2023-03-20T11:03:32.839Z,46.60
2023-03-20T11:06:43.312Z,46.57
2023-03-20T11:09:46.494Z,46.68
2023-03-20T11:12:52.349Z,46.60
2023-03-20T11:15:57.340Z,46.71
2023-03-20T11:19:09.245Z,46.66
2023-03-20T11:22:25.979Z,46.66
2023-03-20T11:25:35.219Z,46.61
2023-03-20T11:28:40.710Z,46.61
2023-03-20T11:31:45.089Z,46.55
2023-03-20T11:34:48.217Z,46.63
2023-03-20T11:37:53.085Z,46.43
2023-03-20T11:40:56.750Z,46.63
2023-03-20T11:43:59.808Z,46.54
2023-03-20T11:47:06.980Z,46.58
2023-03-20T11:50:27.518Z,46.59
2023-03-20T11:53:33.532Z,46.74
2023-03-20T11:56:37.521Z,46.60
2023-03-20T11:59:41.333Z,46.72
2023-03-20T12:02:46.224Z,46.75
2023-03-20T12:05:49.188Z,46.78
2023-03-20T12:08:55.471Z,46.82
2023-03-20T12:12:02.686Z,46.86
2023-03-20T12:15:16.503Z,46.82
2023-03-20T12:18:27.053Z,46.83
2023-03-20T12:21:34.416Z,46.90
2023-03-20T12:24:42.534Z,46.78
2023-03-20T12:27:51.403Z,46.78
2023-03-20T12:31:05.857Z,46.86
2023-03-20T12:34:13.815Z,46.93
2023-03-20T12:37:18.445Z,46.82
2023-03-20T12:40:32.450Z,46.81
2023-03-20T12:43:43.830Z,46.77
2023-03-20T12:46:56.068Z,46.75
2023-03-20T12:50:14.773Z,46.76
2023-03-20T12:53:32.614Z,46.68
2023-03-20T12:56:54.273Z,46.70
2023-03-20T13:00:17.781Z,46.79
2023-03-20T13:03:41.133Z,46.84
2023-03-20T13:06:53.398Z,46.69
2023-03-20T13:10:08.807Z,46.65
2023-03-20T13:13:19.788Z,46.77
2023-03-20T13:16:35.722Z,46.63
2023-03-20T13:19:44.465Z,46.74
2023-03-20T13:22:59.424Z,46.77
2023-03-20T13:26:14.979Z,46.81
2023-03-20T13:29:25.812Z,46.64
2023-03-20T13:32:43.979Z,46.71
2023-03-20T13:35:53.520Z,46.78
2023-03-20T13:39:04.762Z,47.06
2023-03-20T13:42:13.874Z,44.54
2023-03-20T13:45:31.671Z,44.54
2023-03-20T13:48:37.377Z,44.68
2023-03-20T13:51:45.839Z,44.68
2023-03-20T13:55:10.304Z,44.98
2023-03-20T13:58:29.666Z,45.32
2023-03-20T14:01:44.213Z,45.79
2023-03-20T14:04:51.403Z,46.07
2023-03-20T14:07:57.909Z,46.27
2023-03-20T14:11:15.500Z,46.47
2023-03-20T14:14:26.030Z,46.57
2023-03-20T14:17:31.090Z,46.85
2023-03-20T14:20:36.313Z,46.92
2023-03-20T14:23:44.317Z,46.94
2023-03-20T14:26:51.587Z,47.10
2023-03-20T14:29:54.521Z,46.87
2023-03-20T14:33:01.246Z,46.92
2023-03-20T14:36:20.808Z,47.12
2023-03-20T14:39:42.309Z,47.15
2023-03-20T14:42:56.106Z,47.17
2023-03-20T14:46:04.776Z,47.12
2023-03-20T14:49:26.187Z,47.28
2023-03-20T14:52:49.220Z,47.16
2023-03-20T14:56:02.076Z,47.26
2023-03-20T14:59:08.031Z,47.32
2023-03-20T15:02:27.442Z,47.21
2023-03-20T15:05:33.895Z,47.21
2023-03-20T15:08:43.290Z,47.16
2023-03-20T15:11:47.858Z,47.26
2023-03-20T15:14:57.035Z,47.28
2023-03-20T15:18:06.214Z,47.20
2023-03-20T15:21:14.889Z,47.34
2023-03-20T15:24:23.140Z,47.33
2023-03-20T15:27:29.762Z,47.44
2023-03-20T15:30:38.025Z,47.39
2023-03-20T15:33:43.928Z,47.46
2023-03-20T15:36:47.081Z,47.45
2023-03-20T15:39:52.273Z,47.58
2023-03-20T15:42:57.484Z,47.53
2023-03-20T15:46:17.449Z,47.42
2023-03-20T15:49:23.383Z,47.51
2023-03-20T15:52:31.718Z,47.47
2023-03-20T15:55:36.646Z,47.40
2023-03-20T15:58:40.073Z,47.55
2023-03-20T16:01:45.407Z,47.42
2023-03-20T16:04:52.138Z,47.50
2023-03-20T16:07:55.392Z,47.48
2023-03-20T16:11:01.257Z,47.54
2023-03-20T16:14:05.508Z,47.46
2023-03-20T16:17:13.334Z,47.52
2023-03-20T16:20:17.350Z,47.43
2023-03-20T16:23:34.417Z,47.33
2023-03-20T16:26:42.139Z,47.32
2023-03-20T16:29:45.484Z,47.36
2023-03-20T16:32:57.315Z,47.38
2023-03-20T16:36:02.590Z,47.36
2023-03-20T16:39:09.341Z,47.52
2023-03-20T16:42:24.357Z,47.44
2023-03-20T16:45:31.493Z,47.40
2023-03-20T16:48:37.741Z,47.33
2023-03-20T16:51:44.064Z,47.36
2023-03-20T16:54:47.110Z,47.33
2023-03-20T16:57:53.078Z,47.28
2023-03-20T17:00:59.715Z,47.22
2023-03-20T17:04:19.524Z,47.37
2023-03-20T17:07:25.618Z,47.25
2023-03-20T17:10:30.111Z,47.31
2023-03-20T17:13:33.097Z,47.40
2023-03-20T17:16:36.657Z,47.49
2023-03-20T17:19:41.055Z,47.50
2023-03-20T17:22:43.966Z,47.87
2023-03-20T17:25:49.023Z,48.08
2023-03-20T17:28:52.496Z,47.82
2023-03-20T17:31:55.524Z,47.60
2023-03-20T17:34:59.958Z,47.84
2023-03-20T17:38:03.063Z,47.74
2023-03-20T17:41:06.479Z,47.58
2023-03-20T17:44:10.520Z,47.56
2023-03-20T17:47:16.889Z,47.76
2023-03-20T17:50:24.432Z,47.87
2023-03-20T17:53:29.746Z,47.89
2023-03-20T17:56:33.118Z,47.89
2023-03-20T17:59:36.243Z,47.91
2023-03-20T18:02:39.244Z,47.74
2023-03-20T18:05:43.845Z,47.85
2023-03-20T18:08:46.732Z,48.03
2023-03-20T18:11:49.664Z,48.06
2023-03-20T18:14:52.758Z,48.03
2023-03-20T18:17:55.733Z,47.99
2023-03-20T18:21:00.279Z,47.92
2023-03-20T18:24:03.581Z,48.00
2023-03-20T18:27:07.563Z,48.01
2023-03-20T18:30:16.661Z,47.96
2023-03-20T18:33:25.198Z,47.99
2023-03-20T18:36:29.631Z,47.89
2023-03-20T18:39:32.558Z,47.79
2023-03-20T18:42:35.606Z,47.71
2023-03-20T18:45:39.702Z,47.75
2023-03-20T18:48:42.691Z,47.70
2023-03-20T18:51:47.420Z,47.73
2023-03-20T18:54:51.944Z,47.69
2023-03-20T18:57:55.264Z,47.70
2023-03-20T19:00:59.682Z,47.73
2023-03-20T19:04:02.760Z,47.85
2023-03-20T19:07:07.776Z,47.88
2023-03-20T19:10:29.536Z,47.99
2023-03-20T19:13:32.693Z,47.96
2023-03-20T19:16:38.121Z,48.00
2023-03-20T19:19:41.263Z,47.94
2023-03-20T19:22:45.657Z,48.00
2023-03-20T19:25:50.650Z,47.90
2023-03-20T19:28:54.679Z,47.89
2023-03-20T19:31:58.671Z,47.88
2023-03-20T19:38:26.128Z,48.10
2023-03-20T19:41:29.827Z,48.05
2023-03-20T19:44:32.771Z,48.02
2023-03-20T19:47:35.742Z,47.99
2023-03-20T19:50:41.532Z,47.97
2023-03-20T19:53:48.607Z,48.06
2023-03-20T19:56:51.494Z,48.03
2023-03-20T19:59:54.362Z,48.02
2023-03-20T20:02:57.890Z,47.97
2023-03-20T20:06:02.426Z,47.88
2023-03-20T20:09:06.996Z,47.92
2023-03-20T20:12:09.891Z,47.80
2023-03-20T20:15:14.065Z,47.88
2023-03-20T20:18:17.833Z,47.91
2023-03-20T20:22:09.798Z,48.01
2023-03-20T20:24:45.060Z,47.98
2023-03-20T20:27:48.240Z,47.94
2023-03-20T20:30:52.930Z,48.10
2023-03-20T20:34:38.637Z,47.91
2023-03-20T20:40:44.061Z,47.96
2023-03-20T20:44:18.394Z,47.75
2023-03-20T20:47:10.891Z,47.79
2023-03-20T20:50:14.822Z,47.63
2023-03-20T20:53:17.692Z,47.67
2023-03-20T20:56:22.054Z,47.59
2023-03-20T20:59:24.928Z,47.58
2023-03-20T21:02:29.193Z,47.58
2023-03-20T21:05:32.172Z,47.60
2023-03-20T21:08:36.584Z,47.64
2023-03-20T21:11:40.826Z,47.57
2023-03-20T21:14:44.647Z,47.59
2023-03-20T21:17:59.998Z,47.49
2023-03-20T21:21:07.724Z,47.65
2023-03-20T21:24:30.982Z,47.73
2023-03-20T21:27:36.767Z,47.73
2023-03-20T21:30:56.120Z,47.79
2023-03-20T21:34:06.481Z,47.80
2023-03-20T21:40:34.081Z,47.85
2023-03-20T21:43:39.568Z,47.86
2023-03-20T22:04:37.634Z,47.92
2023-03-20T22:07:53.761Z,47.82
2023-03-20T22:35:04.313Z,47.82
2023-03-20T22:47:42.217Z,47.80
2023-03-20T22:50:48.451Z,47.74
2023-03-20T22:53:51.450Z,47.73
2023-03-20T22:56:54.346Z,47.61
2023-03-20T22:59:57.169Z,47.57
2023-03-20T23:03:15.210Z,47.63
2023-03-20T23:06:23.992Z,47.55
2023-03-20T23:09:26.945Z,47.51
2023-03-20T23:12:29.841Z,47.57
2023-03-20T23:15:32.842Z,47.58
2023-03-20T23:18:35.912Z,47.59
2023-03-20T23:21:40.151Z,47.68
2023-03-20T23:24:43.042Z,47.62
2023-03-20T23:27:45.989Z,47.46
2023-03-20T23:30:59.851Z,47.56
2023-03-20T23:34:11.892Z,47.49
2023-03-20T23:37:16.442Z,47.51
2023-03-20T23:40:20.879Z,47.44
2023-03-20T23:43:24.556Z,47.38
2023-03-20T23:46:27.493Z,47.41
2023-03-20T23:49:30.703Z,47.46
2023-03-20T23:52:43.400Z,47.31
2023-03-20T23:55:55.140Z,47.39
2023-03-20T23:59:03.176Z,47.38
